createdAt,value
2023-03-04T00:00:47.977Z,29.12
2023-03-04T00:03:18.177Z,29.04
2023-03-04T00:05:49.432Z,28.98
2023-03-04T00:08:19.474Z,28.98
2023-03-04T00:10:49.320Z,28.93
2023-03-04T00:13:20.651Z,28.90
2023-03-04T00:16:09.156Z,28.85
2023-03-04T00:19:01.629Z,28.84
2023-03-04T00:21:32.317Z,28.80
2023-03-04T00:24:02.359Z,28.79
2023-03-04T00:26:32.244Z,28.77
2023-03-04T00:29:02.143Z,28.81
2023-03-04T00:31:49.849Z,28.75
2023-03-04T00:34:20.109Z,28.76
2023-03-04T00:36:50.122Z,28.76
2023-03-04T00:39:20.448Z,28.78
2023-03-04T00:41:51.337Z,28.66
2023-03-04T00:44:39.426Z,28.61
2023-03-04T00:49:56.823Z,28.74
2023-03-04T00:52:26.937Z,28.71
2023-03-04T00:54:56.949Z,28.76
2023-03-04T00:57:27.014Z,28.61
2023-03-04T00:59:56.906Z,28.49
2023-03-04T01:02:27.276Z,28.60
2023-03-04T01:04:57.390Z,28.65
2023-03-04T01:07:27.460Z,28.70
2023-03-04T01:09:57.482Z,28.72
2023-03-04T01:12:27.663Z,28.58
2023-03-04T01:14:59.100Z,28.41
2023-03-04T01:17:29.122Z,28.46
2023-03-04T01:19:59.712Z,28.45
2023-03-04T01:22:31.473Z,28.50
2023-03-04T01:25:13.237Z,28.51
2023-03-04T01:27:43.331Z,28.51
2023-03-04T01:30:31.891Z,28.61
2023-03-04T01:33:02.792Z,28.50
2023-03-04T01:35:32.851Z,28.50
2023-03-04T01:40:51.285Z,28.25
2023-03-04T01:43:31.048Z,28.39
2023-03-04T01:46:01.750Z,28.36
2023-03-04T01:48:36.256Z,28.29
2023-03-04T01:51:15.310Z,28.38
2023-03-04T01:53:48.522Z,28.49
2023-03-04T01:56:31.227Z,28.34
2023-03-04T01:59:21.854Z,28.26
2023-03-04T02:02:04.688Z,28.45
2023-03-04T02:04:37.327Z,28.46
2023-03-04T02:07:08.258Z,28.53
2023-03-04T02:09:40.431Z,28.49
2023-03-04T02:12:10.674Z,28.72
2023-03-04T02:14:41.910Z,28.72
2023-03-04T02:17:15.850Z,28.77
2023-03-04T02:20:09.700Z,28.69
2023-03-04T02:22:45.932Z,28.69
2023-03-04T02:25:23.246Z,28.67
2023-03-04T02:27:54.153Z,28.68
2023-03-04T02:30:27.606Z,28.77
2023-03-04T02:32:58.019Z,28.80
2023-03-04T02:38:17.908Z,28.90
2023-03-04T02:40:52.103Z,28.93
2023-03-04T02:43:22.926Z,28.92
2023-03-04T02:45:54.617Z,28.96
2023-03-04T02:48:43.353Z,28.98
2023-03-04T02:51:14.063Z,29.06
2023-03-04T02:53:45.791Z,29.13
2023-03-04T02:56:33.979Z,29.13
2023-03-04T02:59:04.974Z,29.20
2023-03-04T03:01:35.192Z,29.27
2023-03-04T03:04:05.124Z,29.28
2023-03-04T03:06:37.063Z,29.32
2023-03-04T03:09:07.619Z,29.41
2023-03-04T03:11:38.239Z,29.55
2023-03-04T03:16:55.400Z,29.46
2023-03-04T03:19:25.533Z,29.52
2023-03-04T03:21:58.210Z,29.56
2023-03-04T03:24:29.803Z,29.67
2023-03-04T03:26:59.866Z,29.67
2023-03-04T03:29:30.128Z,29.65
2023-03-04T03:32:00.343Z,29.70
2023-03-04T03:34:31.853Z,29.75
2023-03-04T03:37:02.390Z,29.83
2023-03-04T03:39:32.389Z,29.82
2023-03-04T03:42:03.209Z,29.78
2023-03-04T03:44:33.310Z,29.85
2023-03-04T03:47:03.568Z,29.85
2023-03-04T03:49:33.583Z,29.88
2023-03-04T03:52:03.544Z,29.94
2023-03-04T03:54:33.641Z,29.92
2023-03-04T03:57:03.520Z,29.93
2023-03-04T03:59:33.549Z,29.90
2023-03-04T04:02:03.748Z,29.93
2023-03-04T04:04:34.053Z,29.97
2023-03-04T04:07:04.731Z,29.99
2023-03-04T04:09:35.037Z,30.03
2023-03-04T04:12:08.658Z,30.05
2023-03-04T04:14:39.017Z,30.07
2023-03-04T04:17:13.039Z,30.14
2023-03-04T04:19:46.326Z,30.10
2023-03-04T04:22:18.790Z,30.14
2023-03-04T04:24:51.135Z,30.17
2023-03-04T04:30:10.422Z,30.22
2023-03-04T04:32:40.908Z,30.20
2023-03-04T04:35:11.495Z,30.19
2023-03-04T04:37:45.678Z,30.22
2023-03-04T04:40:16.261Z,30.23
2023-03-04T04:42:46.917Z,30.27
2023-03-04T04:45:17.005Z,30.35
2023-03-04T04:47:47.409Z,30.44
2023-03-04T04:50:17.938Z,30.43
2023-03-04T04:52:48.569Z,30.46
2023-03-04T04:55:20.131Z,30.47
2023-03-04T04:57:50.296Z,30.57
2023-03-04T06:39:35.665Z,30.81
2023-03-04T06:42:05.852Z,30.90
2023-03-04T06:44:35.977Z,30.95
2023-03-04T06:47:08.127Z,31.04
2023-03-04T06:49:38.326Z,31.11
2023-03-04T06:52:08.372Z,31.19
2023-03-04T06:54:38.320Z,31.24
2023-03-04T06:57:09.655Z,31.28
2023-03-04T06:59:39.373Z,31.28
2023-03-04T07:02:12.681Z,31.29
2023-03-04T07:04:43.276Z,31.28
2023-03-04T07:07:15.710Z,31.27
2023-03-04T07:09:45.773Z,31.31
2023-03-04T07:12:15.721Z,31.33
2023-03-04T07:14:45.998Z,31.32
2023-03-04T07:17:16.678Z,31.32
2023-03-04T07:19:47.711Z,31.26
2023-03-04T07:22:17.847Z,31.21
2023-03-04T07:24:47.881Z,31.25
2023-03-04T07:27:18.041Z,31.33
2023-03-04T07:29:49.265Z,31.35
2023-03-04T07:32:19.474Z,31.34
2023-03-04T07:34:49.753Z,31.35
2023-03-04T07:37:19.936Z,31.38
2023-03-04T07:39:49.983Z,31.39
2023-03-04T07:45:12.501Z,31.23
2023-03-04T07:47:43.622Z,31.25
2023-03-04T07:50:16.965Z,31.26
2023-03-04T07:52:50.798Z,31.34
2023-03-04T07:55:21.555Z,31.34
2023-03-04T07:57:51.634Z,31.50
2023-03-04T08:00:22.254Z,31.61
2023-03-04T08:02:52.463Z,31.62
2023-03-04T08:05:22.900Z,31.56
2023-03-04T08:07:53.043Z,31.51
2023-03-04T08:10:23.469Z,31.56
2023-03-04T08:12:53.536Z,31.54
2023-03-04T08:15:23.861Z,31.50
2023-03-04T08:17:54.952Z,31.49
2023-03-04T08:23:10.323Z,31.54
2023-03-04T08:25:44.914Z,31.50
2023-03-04T08:28:15.834Z,31.53
2023-03-04T08:30:46.248Z,31.54
2023-03-04T08:33:16.400Z,31.58
2023-03-04T08:35:46.315Z,31.62
2023-03-04T08:38:16.243Z,31.61
2023-03-04T08:40:46.579Z,31.61
2023-03-04T08:43:16.615Z,31.69
2023-03-04T08:45:46.852Z,31.63
2023-03-04T08:48:17.243Z,31.64
2023-03-04T08:50:49.378Z,31.72
2023-03-04T08:53:20.757Z,31.66
2023-03-04T08:56:10.341Z,31.69
2023-03-04T08:58:40.615Z,31.69
2023-03-04T09:01:12.803Z,31.66
2023-03-04T09:03:43.575Z,31.65
2023-03-04T09:06:17.600Z,31.69
2023-03-04T09:08:48.488Z,31.72
2023-03-04T09:11:20.545Z,31.70
2023-03-04T09:13:50.694Z,31.65
2023-03-04T09:16:20.677Z,31.65
2023-03-04T09:18:50.875Z,31.63
2023-03-04T09:21:20.762Z,31.65
2023-03-04T09:23:50.685Z,31.61
2023-03-04T09:26:32.061Z,31.61
2023-03-04T09:29:02.733Z,31.65
2023-03-04T09:31:33.106Z,31.59
2023-03-04T09:34:04.956Z,31.56
2023-03-04T09:36:35.067Z,31.58
2023-03-04T09:39:06.814Z,31.54
2023-03-04T09:41:42.839Z,31.56
2023-03-04T09:44:39.314Z,31.61
2023-03-04T09:47:24.403Z,31.61
2023-03-04T09:50:02.059Z,31.57
2023-03-04T09:53:02.376Z,31.54
2023-03-04T09:55:43.582Z,31.58
2023-03-04T09:58:34.205Z,31.62
2023-03-04T10:01:06.795Z,31.58
2023-03-04T10:03:51.396Z,31.58
2023-03-04T10:06:24.680Z,31.62
2023-03-04T10:09:08.662Z,31.56
2023-03-04T10:11:51.573Z,31.52
2023-03-04T10:14:24.416Z,31.52
2023-03-04T10:17:03.265Z,31.53
2023-03-04T10:19:46.575Z,31.56
2023-03-04T10:22:34.550Z,31.54
2023-03-04T10:25:17.251Z,31.57
2023-03-04T10:28:00.718Z,31.54
2023-03-04T10:30:50.924Z,31.53
2023-03-04T10:33:27.612Z,31.52
2023-03-04T10:36:13.556Z,31.51
2023-03-04T10:38:45.993Z,31.47
2023-03-04T10:41:22.494Z,31.49
2023-03-04T10:44:13.739Z,31.51
2023-03-04T10:46:46.482Z,31.50
2023-03-04T10:49:37.542Z,31.52
2023-03-04T10:52:26.110Z,31.53
2023-03-04T10:54:58.986Z,31.49
2023-03-04T10:57:32.945Z,31.43
2023-03-04T11:00:05.291Z,31.45
2023-03-04T11:02:37.841Z,31.44
2023-03-04T11:05:20.835Z,31.43
2023-03-04T11:07:57.698Z,31.42
2023-03-04T11:10:39.464Z,31.39
2023-03-04T11:13:24.704Z,31.44
2023-03-04T11:16:07.020Z,31.43
2023-03-04T11:18:57.527Z,31.38
2023-03-04T11:21:34.400Z,31.32
2023-03-04T11:24:13.329Z,31.40
2023-03-04T11:26:57.579Z,31.33
2023-03-04T11:29:33.464Z,31.38
2023-03-04T11:32:03.593Z,31.41
2023-03-04T11:34:55.491Z,31.33
2023-03-04T11:37:50.298Z,31.25
2023-03-04T11:40:41.209Z,31.27
2023-03-04T11:43:40.707Z,31.23
2023-03-04T11:46:34.230Z,31.27
2023-03-04T11:49:22.478Z,31.27
2023-03-04T11:52:17.840Z,31.23
2023-03-04T11:54:53.864Z,31.14
2023-03-04T11:57:57.668Z,31.16
2023-03-04T12:00:41.233Z,31.24
2023-03-04T12:03:29.076Z,31.20
2023-03-04T12:06:17.487Z,31.26
2023-03-04T12:08:47.495Z,31.15
2023-03-04T12:11:41.844Z,31.19
2023-03-04T12:14:51.366Z,31.08
2023-03-04T12:17:24.567Z,31.24
2023-03-04T12:20:19.024Z,31.11
2023-03-04T12:22:59.108Z,31.10
2023-03-04T12:25:49.085Z,31.02
2023-03-04T12:28:28.228Z,31.04
2023-03-04T12:31:00.862Z,31.03
2023-03-04T12:34:01.235Z,31.04
2023-03-04T12:36:42.455Z,30.93
2023-03-04T12:39:36.245Z,30.98
2023-03-04T12:42:23.408Z,30.91
2023-03-04T12:45:24.484Z,30.96
2023-03-04T12:48:09.609Z,30.95
2023-03-04T12:50:45.527Z,31.03
2023-03-04T12:53:19.745Z,30.95
2023-03-04T12:55:52.320Z,30.96
2023-03-04T12:58:28.575Z,30.92
2023-03-04T13:01:04.239Z,30.94
2023-03-04T13:03:40.728Z,30.94
2023-03-04T13:06:26.030Z,30.93
2023-03-04T13:09:05.218Z,30.95
2023-03-04T13:11:43.873Z,30.95
2023-03-04T13:14:20.478Z,30.98
2023-03-04T13:16:52.335Z,30.94
2023-03-04T13:19:53.654Z,30.91
2023-03-04T13:22:42.070Z,30.86
2023-03-04T13:25:38.744Z,30.87
2023-03-04T13:28:11.928Z,30.81
2023-03-04T13:31:07.283Z,30.87
2023-03-04T13:33:37.434Z,30.91
2023-03-04T13:36:28.270Z,30.88
2023-03-04T13:39:04.756Z,30.83
2023-03-04T13:41:50.660Z,30.77
2023-03-04T13:44:58.409Z,30.83
2023-03-04T13:47:47.503Z,30.79
2023-03-04T13:50:37.540Z,30.73
2023-03-04T13:53:29.596Z,30.70
2023-03-04T13:56:24.467Z,30.68
2023-03-04T13:59:09.661Z,30.62
2023-03-04T14:01:49.470Z,30.63
2023-03-04T14:04:27.484Z,30.76
2023-03-04T14:07:02.958Z,30.84
2023-03-04T14:09:36.415Z,30.91
2023-03-04T14:12:24.341Z,30.88
2023-03-04T14:15:01.470Z,30.88
2023-03-04T14:17:34.745Z,30.92
2023-03-04T14:20:15.603Z,30.84
2023-03-04T14:25:51.497Z,30.94
2023-03-04T14:28:29.637Z,30.95
2023-03-04T14:31:36.768Z,31.01
2023-03-04T14:34:05.380Z,30.96
2023-03-04T14:36:38.493Z,30.94
2023-03-04T14:39:10.655Z,30.99
2023-03-04T14:41:47.243Z,30.92
2023-03-04T14:44:21.038Z,30.87
2023-03-04T14:47:06.954Z,30.99
2023-03-04T14:49:42.186Z,31.03
2023-03-04T14:52:31.042Z,31.02
2023-03-04T14:55:07.781Z,31.00
2023-03-04T14:57:39.275Z,31.01
2023-03-04T15:00:30.084Z,31.02
2023-03-04T15:03:03.287Z,31.06
2023-03-04T15:05:36.553Z,31.02
2023-03-04T15:08:52.538Z,31.01
2023-03-04T15:11:28.972Z,30.99
2023-03-04T15:14:04.782Z,30.99
2023-03-04T15:16:57.594Z,30.98
2023-03-04T15:19:32.437Z,30.95
2023-03-04T15:22:10.655Z,30.94
2023-03-04T15:24:46.642Z,30.95
2023-03-04T15:27:28.132Z,30.94
2023-03-04T15:30:01.603Z,30.98
2023-03-04T15:32:35.373Z,30.96
2023-03-04T15:35:05.813Z,30.94
2023-03-04T15:37:36.570Z,30.97
2023-03-04T15:40:15.634Z,30.91
2023-03-04T15:42:53.756Z,30.95
2023-03-04T15:45:36.321Z,30.99
2023-03-04T15:48:11.468Z,30.89
2023-03-04T15:50:50.486Z,30.87
2023-03-04T15:53:34.961Z,30.88
2023-03-04T15:59:18.645Z,30.83
2023-03-04T16:01:49.683Z,30.80
2023-03-04T16:04:20.707Z,30.74
2023-03-04T16:06:52.766Z,30.72
2023-03-04T16:09:24.260Z,30.72
2023-03-04T16:12:00.456Z,30.71
2023-03-04T16:14:34.559Z,30.73
2023-03-04T16:17:06.655Z,30.66
2023-03-04T16:19:36.890Z,30.66
2023-03-04T16:22:07.546Z,30.63
2023-03-04T16:24:37.937Z,30.65
2023-03-04T16:27:20.358Z,30.65
2023-03-04T16:29:53.819Z,30.64
2023-03-04T16:32:24.031Z,30.67
2023-03-04T16:34:57.049Z,30.67
2023-03-04T16:37:28.785Z,30.66
2023-03-04T16:39:59.433Z,30.63
2023-03-04T16:42:34.751Z,30.64
2023-03-04T16:45:07.033Z,30.62
2023-03-04T16:47:38.289Z,30.63
2023-03-04T16:50:08.215Z,30.63
2023-03-04T16:52:39.428Z,30.62
2023-03-04T16:55:12.869Z,30.60
2023-03-04T16:57:43.102Z,30.60
2023-03-04T17:00:14.281Z,30.60
2023-03-04T17:02:44.562Z,30.57
2023-03-04T17:05:23.385Z,30.58
2023-03-04T17:07:53.698Z,30.60
2023-03-04T17:10:30.089Z,30.53
2023-03-04T17:13:00.237Z,30.56
2023-03-04T17:15:30.406Z,30.55
2023-03-04T17:18:00.434Z,30.53
2023-03-04T17:20:30.754Z,30.52
2023-03-04T17:23:02.445Z,30.52
2023-03-04T17:25:32.658Z,30.53
2023-03-04T17:28:02.850Z,30.48
2023-03-04T17:30:37.302Z,30.50
2023-03-04T17:33:07.507Z,30.47
2023-03-04T17:35:40.557Z,30.47
2023-03-04T17:40:53.159Z,30.46
2023-03-04T17:43:26.048Z,30.46
2023-03-04T17:46:06.109Z,30.44
2023-03-04T17:49:01.419Z,30.46
2023-03-04T17:51:40.558Z,30.43
2023-03-04T17:54:12.683Z,30.45
2023-03-04T17:56:45.699Z,30.39
2023-03-04T17:59:19.391Z,30.45
2023-03-04T18:01:51.647Z,30.43
2023-03-04T18:04:23.240Z,30.42
2023-03-04T18:06:53.375Z,30.45
2023-03-04T18:09:23.342Z,30.42
2023-03-04T18:11:53.655Z,30.42
2023-03-04T18:14:23.874Z,30.38
2023-03-04T18:16:53.904Z,30.41
2023-03-04T18:19:44.959Z,30.36
2023-03-04T18:22:15.506Z,30.37
2023-03-04T18:24:48.750Z,30.37
2023-03-04T18:27:19.004Z,30.35
2023-03-04T18:29:50.813Z,30.32
2023-03-04T18:32:21.024Z,30.33
2023-03-04T18:34:51.425Z,30.35
2023-03-04T18:37:21.685Z,30.32
2023-03-04T18:39:51.692Z,30.30
2023-03-04T18:42:21.986Z,30.28
2023-03-04T18:44:52.205Z,30.27
2023-03-04T18:47:22.622Z,30.30
2023-03-04T18:49:53.949Z,30.23
2023-03-04T18:52:23.604Z,30.28
2023-03-04T18:54:54.733Z,30.28
2023-03-04T18:57:25.040Z,30.28
2023-03-04T19:00:01.601Z,30.28
2023-03-04T19:02:37.722Z,30.27
2023-03-04T19:05:21.263Z,30.26
2023-03-04T19:07:51.481Z,30.23
2023-03-04T19:10:22.409Z,30.26
2023-03-04T19:12:52.823Z,30.29
2023-03-04T19:15:22.960Z,30.26
2023-03-04T19:17:52.901Z,30.27
2023-03-04T19:20:23.089Z,30.27
2023-03-04T19:25:42.403Z,30.22
2023-03-04T19:28:13.592Z,30.24
2023-03-04T19:30:44.428Z,30.18
2023-03-04T19:33:14.715Z,30.20
2023-03-04T19:35:47.291Z,30.17
2023-03-04T19:38:17.436Z,30.17
2023-03-04T19:40:51.912Z,30.19
2023-03-04T19:43:22.001Z,30.23
2023-03-04T19:45:58.697Z,30.21
2023-03-04T19:48:28.906Z,30.21
2023-03-04T19:50:59.114Z,30.19
2023-03-04T19:53:29.907Z,30.17
2023-03-04T19:55:59.885Z,30.18
2023-03-04T19:58:29.804Z,30.18
2023-03-04T20:01:00.179Z,30.17
2023-03-04T20:03:30.333Z,30.14
2023-03-04T20:06:11.153Z,30.15
2023-03-04T20:08:41.046Z,30.13
2023-03-04T20:11:16.707Z,30.14
2023-03-04T20:13:47.616Z,30.15
2023-03-04T20:16:17.660Z,30.15
2023-03-04T20:18:48.378Z,30.12
2023-03-04T20:21:19.134Z,30.13
2023-03-04T20:23:49.610Z,30.11
2023-03-04T20:26:20.780Z,30.07
2023-03-04T20:28:53.740Z,30.09
2023-03-04T20:31:30.680Z,30.08
2023-03-04T20:34:02.397Z,30.08
2023-03-04T20:36:33.653Z,30.07
2023-03-04T20:39:08.288Z,30.06
2023-03-04T20:41:45.621Z,30.02
2023-03-04T20:44:15.445Z,30.04
2023-03-04T20:46:50.052Z,30.05
2023-03-04T20:49:26.056Z,30.01
2023-03-04T20:54:44.120Z,30.03
2023-03-04T20:57:14.778Z,29.99
2023-03-04T20:59:45.051Z,29.98
2023-03-04T21:02:17.731Z,29.96
2023-03-04T21:04:47.826Z,29.99
2023-03-04T21:07:17.766Z,30.00
2023-03-04T21:09:47.724Z,29.97
2023-03-04T21:12:17.742Z,29.95
2023-03-04T21:14:48.347Z,29.94
2023-03-04T21:17:18.538Z,29.95
2023-03-04T21:19:48.668Z,29.93
2023-03-04T21:22:21.173Z,29.93
2023-03-04T21:24:51.244Z,29.92
2023-03-04T21:27:22.303Z,29.93
2023-03-04T21:29:52.396Z,29.92
2023-03-04T21:32:27.708Z,29.90
2023-03-04T22:09:43.978Z,29.51
2023-03-04T22:12:14.268Z,29.46
2023-03-04T22:14:44.399Z,29.46
2023-03-04T22:17:14.348Z,29.44
2023-03-04T22:19:44.561Z,29.40
2023-03-04T22:22:23.538Z,29.28
2023-03-04T22:24:54.448Z,29.29
2023-03-04T22:27:24.584Z,29.30
2023-03-04T22:29:54.637Z,29.30
2023-03-04T22:32:26.062Z,29.23
2023-03-04T22:34:56.181Z,29.20
2023-03-04T22:37:26.145Z,29.11
2023-03-04T22:39:56.249Z,29.16
2023-03-04T22:42:26.155Z,29.13
2023-03-04T22:44:57.926Z,29.12
2023-03-04T22:47:28.166Z,29.18
2023-03-04T22:49:58.231Z,29.14
2023-03-04T22:52:28.227Z,29.16
2023-03-04T22:54:58.299Z,29.13
2023-03-04T22:58:03.383Z,29.14
2023-03-04T23:00:34.480Z,29.12
2023-03-04T23:03:04.741Z,29.10
2023-03-04T23:05:35.219Z,29.12
2023-03-04T23:08:05.476Z,29.10
2023-03-04T23:10:35.638Z,29.12
2023-03-04T23:13:06.521Z,29.13
2023-03-04T23:15:36.592Z,29.09
2023-03-04T23:18:06.803Z,29.13
2023-03-04T23:20:36.915Z,29.06
2023-03-04T23:23:06.953Z,29.08
2023-03-04T23:25:41.170Z,29.03
2023-03-04T23:28:11.219Z,29.02
2023-03-04T23:30:41.134Z,29.02
2023-03-04T23:33:11.070Z,28.92
2023-03-04T23:35:41.184Z,28.98
2023-03-04T23:38:11.533Z,28.93
2023-03-04T23:40:41.955Z,28.95
2023-03-04T23:43:12.441Z,28.92
2023-03-04T23:45:42.930Z,28.88
2023-03-04T23:48:13.239Z,28.88
2023-03-04T23:50:43.593Z,28.86
2023-03-04T23:53:13.661Z,28.90
2023-03-04T23:55:44.305Z,28.87
2023-03-04T23:58:14.744Z,28.91
